Time;durP1;ratioP1;P1;durP2;ratioP2;P2;SDS_P1;SDS_P2;PMS_P1;PMS_P2;Temp;Humidity;BMP_temperature;BMP_pressure;BME280_temperature;BME280_humidity;BME280_pressure;Samples;Min_cycle;Max_cycle;Signal;HPM_P1;HPM_P2
2022/09/25 00:00:35;;;;;;;12.93;8.90;;;13.80;99.90;;;;;;5051550;28;20681;-75
2022/09/25 00:03:01;;;;;;;10.47;9.30;;;13.80;99.90;;;;;;5050323;28;20210;-75
2022/09/25 00:05:26;;;;;;;12.40;9.95;;;13.80;99.90;;;;;;5046280;28;20206;-76
2022/09/25 00:07:55;;;;;;;10.40;9.37;;;13.80;99.90;;;;;;5050630;28;20632;-76
2022/09/25 00:10:23;;;;;;;11.20;9.00;;;13.80;99.90;;;;;;5040062;28;20565;-76
2022/09/25 00:12:49;;;;;;;11.03;9.23;;;13.80;99.90;;;;;;5041402;28;20294;-76
2022/09/25 00:15:14;;;;;;;9.80;8.80;;;13.70;99.90;;;;;;5043903;28;20314;-75
2022/09/25 00:17:40;;;;;;;9.90;8.40;;;13.70;99.90;;;;;;5056394;28;20208;-75
2022/09/25 00:20:06;;;;;;;13.13;9.03;;;13.70;99.90;;;;;;5050716;28;20208;-76
2022/09/25 00:22:31;;;;;;;8.70;7.83;;;13.80;99.90;;;;;;5045663;28;20646;-76
2022/09/25 00:24:57;;;;;;;9.60;8.40;;;13.70;99.90;;;;;;5048005;28;20168;-75
2022/09/25 00:27:22;;;;;;;9.43;7.90;;;13.70;99.90;;;;;;5055420;28;20199;-75
2022/09/25 00:29:48;;;;;;;11.17;9.00;;;13.70;99.90;;;;;;5046381;28;20234;-76
2022/09/25 00:32:14;;;;;;;9.20;7.63;;;13.70;99.90;;;;;;5044010;28;20539;-75
2022/09/25 00:34:40;;;;;;;8.40;7.40;;;13.70;99.90;;;;;;5033899;28;20529;-75
2022/09/25 00:37:06;;;;;;;9.10;7.73;;;13.70;99.90;;;;;;5052164;28;20168;-75
2022/09/25 00:39:33;;;;;;;9.60;8.53;;;13.70;99.90;;;;;;5046075;28;20223;-75
2022/09/25 00:41:58;;;;;;;10.30;8.77;;;13.80;99.90;;;;;;5044324;28;20608;-76
2022/09/25 00:44:55;;;;;;;10.20;7.87;;;13.80;99.90;;;;;;5055145;28;20225;-75
2022/09/25 00:47:39;;;;;;;10.77;7.77;;;13.80;99.90;;;;;;5045597;28;20645;-75
2022/09/25 00:50:15;;;;;;;11.23;7.67;;;13.80;99.90;;;;;;5046214;28;20279;-75
2022/09/25 00:52:41;;;;;;;8.07;7.27;;;13.80;99.90;;;;;;5057973;28;20277;-75
2022/09/25 00:55:08;;;;;;;9.00;7.00;;;13.80;99.90;;;;;;5052971;28;20622;-76
2022/09/25 00:57:36;;;;;;;7.67;6.70;;;13.80;99.90;;;;;;5047093;28;20254;-75
2022/09/25 01:00:11;;;;;;;8.10;6.97;;;13.80;99.90;;;;;;5050489;28;20215;-76
2022/09/25 01:02:41;;;;;;;8.37;6.73;;;13.80;99.90;;;;;;5054972;28;20199;-77
2022/09/25 01:05:13;;;;;;;10.05;7.68;;;13.90;99.90;;;;;;5031345;28;20234;-77
2022/09/25 01:07:43;;;;;;;7.97;7.03;;;13.90;99.90;;;;;;5054223;28;20185;-76
2022/09/25 01:10:10;;;;;;;7.73;6.87;;;13.90;99.90;;;;;;5058179;28;20801;-75
2022/09/25 01:12:39;;;;;;;8.10;7.03;;;13.90;99.90;;;;;;5026111;28;20253;-76
2022/09/25 01:15:07;;;;;;;9.57;7.30;;;13.90;99.90;;;;;;5045661;28;20247;-75
2022/09/25 01:17:55;;;;;;;9.67;7.70;;;13.90;99.90;;;;;;5054848;28;20202;-75
2022/09/25 01:20:35;;;;;;;9.00;6.57;;;13.90;99.90;;;;;;5050302;28;20195;-75
2022/09/25 01:23:24;;;;;;;8.03;6.53;;;13.90;99.90;;;;;;5053434;28;20258;-75
2022/09/25 01:26:27;;;;;;;7.25;6.53;;;14.00;99.90;;;;;;5054993;28;20211;-76
2022/09/25 01:29:13;;;;;;;7.20;6.30;;;14.00;99.90;;;;;;5053578;28;20229;-75
2022/09/25 01:32:01;;;;;;;8.95;6.60;;;14.00;99.90;;;;;;5046551;28;20259;-76
2022/09/25 01:34:46;;;;;;;7.53;5.90;;;14.00;99.90;;;;;;5038160;28;20191;-75
2022/09/25 01:37:23;;;;;;;7.37;6.37;;;14.00;99.90;;;;;;5055296;28;20223;-75
2022/09/25 01:40:05;;;;;;;7.50;6.75;;;14.00;99.90;;;;;;5045717;28;20298;-75
2022/09/25 01:42:55;;;;;;;7.30;5.80;;;14.00;99.90;;;;;;5035640;28;20201;-75
2022/09/25 01:45:27;;;;;;;8.70;6.55;;;14.00;99.90;;;;;;5050519;28;20203;-75
2022/09/25 01:47:56;;;;;;;6.07;5.45;;;13.90;99.90;;;;;;5046672;28;20204;-74
2022/09/25 01:50:40;;;;;;;10.35;6.28;;;13.90;99.90;;;;;;5048243;28;20191;-76
2022/09/25 01:53:11;;;;;;;8.67;6.27;;;13.90;99.90;;;;;;5056765;28;20693;-74
2022/09/25 01:55:43;;;;;;;7.65;5.78;;;13.90;99.90;;;;;;5048149;28;20175;-75
2022/09/25 01:58:31;;;;;;;7.20;6.43;;;13.80;99.90;;;;;;5044548;28;20250;-75
2022/09/25 02:01:05;;;;;;;8.50;6.23;;;13.80;99.90;;;;;;5054674;28;20203;-75
2022/09/25 02:03:42;;;;;;;6.57;5.97;;;13.80;99.90;;;;;;5052510;28;20217;-76
2022/09/25 02:06:12;;;;;;;7.88;6.18;;;13.80;99.90;;;;;;5028277;28;20204;-75
2022/09/25 02:09:03;;;;;;;8.37;5.83;;;13.70;99.90;;;;;;5041201;28;20553;-75
2022/09/25 02:11:36;;;;;;;7.60;5.80;;;13.70;99.90;;;;;;5018522;28;20204;-76
2022/09/25 02:14:11;;;;;;;8.17;7.00;;;13.70;99.90;;;;;;5046786;28;20212;-75
2022/09/25 02:16:42;;;;;;;7.40;5.90;;;13.70;99.90;;;;;;5047823;28;20208;-75
2022/09/25 02:22:21;;;;;;;7.00;5.87;;;13.70;99.90;;;;;;5048986;28;20633;-75
2022/09/25 02:24:56;;;;;;;7.93;6.10;;;13.70;99.90;;;;;;5050935;28;20226;-75
2022/09/25 02:27:24;;;;;;;7.60;6.40;;;13.70;99.90;;;;;;5033692;28;20954;-75
2022/09/25 02:29:51;;;;;;;6.53;5.77;;;13.70;99.90;;;;;;5048076;28;20203;-75
2022/09/25 02:32:21;;;;;;;7.13;5.90;;;13.70;99.90;;;;;;5046155;28;20279;-76
2022/09/25 02:34:47;;;;;;;8.67;6.60;;;13.70;99.90;;;;;;5053443;28;20181;-75
2022/09/25 02:37:14;;;;;;;10.30;7.22;;;13.60;99.90;;;;;;5054220;28;20608;-75
2022/09/25 02:39:42;;;;;;;8.47;6.13;;;13.70;99.90;;;;;;5028175;28;20739;-75
2022/09/25 02:42:27;;;;;;;6.70;6.00;;;13.60;99.90;;;;;;5026589;28;20251;-75
2022/09/25 02:45:32;;;;;;;7.60;6.30;;;13.60;99.90;;;;;;5050909;28;20208;-76
2022/09/25 02:47:57;;;;;;;8.77;7.10;;;13.60;99.90;;;;;;5030508;28;20286;-75
2022/09/25 02:50:32;;;;;;;7.67;6.10;;;13.70;99.90;;;;;;5046977;28;20257;-76
2022/09/25 02:53:17;;;;;;;10.70;8.33;;;13.60;99.90;;;;;;5042198;28;20297;-75
2022/09/25 02:55:42;;;;;;;6.80;5.80;;;13.70;99.90;;;;;;5043886;28;20229;-76
2022/09/25 02:58:16;;;;;;;7.93;6.43;;;13.70;99.90;;;;;;5042513;28;20180;-76
2022/09/25 03:00:46;;;;;;;7.37;6.17;;;13.70;99.90;;;;;;5027754;28;20208;-75
2022/09/25 03:03:15;;;;;;;8.57;7.70;;;13.70;99.90;;;;;;5028125;28;20203;-75
2022/09/25 03:05:41;;;;;;;8.00;7.00;;;13.70;99.90;;;;;;5042764;28;20200;-75
2022/09/25 03:10:52;;;;;;;9.53;7.40;;;13.60;99.90;;;;;;5044129;28;20206;-77
2022/09/25 03:13:33;;;;;;;7.13;6.43;;;13.50;99.90;;;;;;5031016;28;20192;-75
2022/09/25 03:16:05;;;;;;;8.63;6.13;;;13.50;99.90;;;;;;5039900;28;20283;-75
2022/09/25 03:18:30;;;;;;;8.70;6.33;;;13.50;99.90;;;;;;5031993;28;20716;-75
2022/09/25 03:20:57;;;;;;;7.73;6.60;;;13.50;99.90;;;;;;5043436;28;20205;-75
2022/09/25 03:23:23;;;;;;;6.93;6.13;;;13.50;99.90;;;;;;5031736;28;20191;-74
2022/09/25 03:25:49;;;;;;;8.13;6.73;;;13.50;99.90;;;;;;5024116;28;20245;-75
2022/09/25 03:28:14;;;;;;;7.50;6.23;;;13.40;99.90;;;;;;5029037;28;20215;-75
2022/09/25 03:30:40;;;;;;;8.33;6.13;;;13.40;99.90;;;;;;5025483;28;20199;-75
2022/09/25 03:33:09;;;;;;;10.13;7.57;;;13.40;99.90;;;;;;5030564;28;20208;-75
2022/09/25 03:35:35;;;;;;;8.37;7.17;;;13.40;99.90;;;;;;5048302;28;20300;-76
2022/09/25 03:38:01;;;;;;;9.90;7.43;;;13.40;99.90;;;;;;5045710;28;20204;-75
2022/09/25 03:40:26;;;;;;;8.57;7.70;;;13.50;99.90;;;;;;5032124;28;20669;-75
2022/09/25 03:42:52;;;;;;;13.83;6.30;;;13.50;99.90;;;;;;5031126;28;20208;-75
2022/09/25 03:45:17;;;;;;;7.50;6.60;;;13.50;99.90;;;;;;5043930;28;20192;-76
2022/09/25 03:47:43;;;;;;;9.63;7.40;;;13.50;99.90;;;;;;5025192;28;20210;-75
2022/09/25 03:50:08;;;;;;;8.83;6.93;;;13.40;99.90;;;;;;5040621;28;20230;-75
2022/09/25 03:52:34;;;;;;;9.00;7.70;;;13.40;99.90;;;;;;5049011;28;20262;-75
2022/09/25 03:54:59;;;;;;;9.67;7.93;;;13.40;99.90;;;;;;5045298;28;20172;-75
2022/09/25 03:57:25;;;;;;;8.13;7.03;;;13.40;99.90;;;;;;5031915;28;20195;-75
2022/09/25 03:59:51;;;;;;;11.60;7.70;;;13.40;99.90;;;;;;5059126;23;20238;-69
2022/09/25 04:02:17;;;;;;;10.23;7.57;;;13.30;99.90;;;;;;5047863;28;20200;-71
2022/09/25 04:04:44;;;;;;;10.30;8.00;;;13.30;99.90;;;;;;5044505;28;20214;-71
2022/09/25 04:07:10;;;;;;;13.13;8.90;;;13.30;99.90;;;;;;5023413;28;20191;-71
2022/09/25 04:09:36;;;;;;;8.27;7.37;;;13.30;99.90;;;;;;5032292;28;20238;-71
2022/09/25 04:12:01;;;;;;;9.20;7.90;;;13.30;99.90;;;;;;5043477;28;20307;-71
2022/09/25 04:14:27;;;;;;;8.43;7.43;;;13.30;99.90;;;;;;5043011;28;20234;-72
2022/09/25 04:16:52;;;;;;;8.40;7.10;;;13.30;99.90;;;;;;5043011;28;20665;-70
2022/09/25 04:19:18;;;;;;;8.83;7.10;;;13.30;99.90;;;;;;5046896;28;20200;-72
2022/09/25 04:21:43;;;;;;;10.90;9.40;;;13.30;99.90;;;;;;5046713;28;20211;-72
2022/09/25 04:26:54;;;;;;;9.23;8.27;;;13.20;99.90;;;;;;5048058;28;20345;-71
2022/09/25 04:29:23;;;;;;;11.57;8.57;;;13.30;99.90;;;;;;5048936;28;20685;-71
2022/09/25 04:33:44;;;;;;;10.53;7.93;;;13.20;99.90;;;;;;5032319;28;20597;-72
2022/09/25 04:34:34;;;;;;;15.23;8.67;;;13.10;99.90;;;;;;5050977;28;20210;-72
2022/09/25 04:37:00;;;;;;;8.93;7.87;;;13.10;99.90;;;;;;5048596;28;20177;-72
2022/09/25 04:39:25;;;;;;;10.00;7.27;;;13.10;99.90;;;;;;5034647;28;20218;-73
2022/09/25 04:41:51;;;;;;;13.77;8.80;;;13.10;99.90;;;;;;5041679;28;20291;-72
2022/09/25 04:44:17;;;;;;;9.13;8.20;;;13.10;99.90;;;;;;5050548;28;20217;-71
2022/09/25 04:46:43;;;;;;;9.70;7.57;;;13.10;99.90;;;;;;5029524;28;20182;-72
2022/09/25 04:49:08;;;;;;;10.57;8.57;;;13.10;99.90;;;;;;5027024;28;20200;-71
2022/09/25 04:51:34;;;;;;;9.93;7.97;;;13.10;99.90;;;;;;5026853;28;20562;-72
2022/09/25 04:53:59;;;;;;;9.60;8.07;;;13.10;99.90;;;;;;5048915;28;20273;-72
2022/09/25 04:56:25;;;;;;;11.63;8.40;;;13.20;99.90;;;;;;5034640;28;20222;-71
2022/09/25 04:58:51;;;;;;;10.93;8.90;;;13.10;99.90;;;;;;5041133;28;20275;-72
2022/09/25 05:01:19;;;;;;;11.50;8.97;;;13.10;99.90;;;;;;5032712;28;20234;-72
2022/09/25 05:03:49;;;;;;;9.73;8.13;;;13.20;99.90;;;;;;5047258;28;20196;-72
2022/09/25 05:06:14;;;;;;;10.03;7.97;;;13.20;99.90;;;;;;5033992;28;20198;-72
2022/09/25 05:08:40;;;;;;;11.17;9.47;;;13.20;99.90;;;;;;5051357;28;20730;-72
2022/09/25 05:11:06;;;;;;;9.40;8.13;;;13.20;99.90;;;;;;5030317;28;20201;-72
2022/09/25 05:13:32;;;;;;;10.77;8.27;;;13.10;99.90;;;;;;5036594;28;20192;-71
2022/09/25 05:15:58;;;;;;;8.97;7.93;;;13.20;99.90;;;;;;5042452;28;20187;-72
2022/09/25 05:18:23;;;;;;;9.40;8.00;;;13.20;99.90;;;;;;5053694;28;20229;-72
2022/09/25 05:20:50;;;;;;;9.70;8.70;;;13.20;99.90;;;;;;5050425;28;20203;-71
2022/09/25 05:23:16;;;;;;;12.10;8.23;;;13.10;99.90;;;;;;5030574;28;20198;-72
2022/09/25 05:25:42;;;;;;;10.87;8.80;;;13.10;99.90;;;;;;5047917;28;20166;-71
2022/09/25 05:28:08;;;;;;;9.80;8.57;;;13.20;99.90;;;;;;5038251;28;21005;-71
2022/09/25 05:30:37;;;;;;;11.03;8.83;;;13.20;99.90;;;;;;5049149;28;20666;-72
2022/09/25 05:33:03;;;;;;;12.67;8.87;;;13.20;99.90;;;;;;5043568;28;20243;-72
2022/09/25 05:35:31;;;;;;;9.87;8.23;;;13.20;99.90;;;;;;5042631;28;20230;-72
2022/09/25 05:37:57;;;;;;;10.10;8.37;;;13.10;99.90;;;;;;5050696;28;20204;-71
2022/09/25 05:40:22;;;;;;;10.97;8.63;;;13.20;99.90;;;;;;5048553;28;20245;-72
2022/09/25 05:42:49;;;;;;;11.33;10.13;;;13.20;99.90;;;;;;5047240;28;20200;-72
2022/09/25 05:45:16;;;;;;;10.03;8.80;;;13.10;99.90;;;;;;5056404;28;20199;-71
2022/09/25 05:47:42;;;;;;;11.43;9.70;;;13.10;99.90;;;;;;5048303;28;20200;-72
2022/09/25 05:50:09;;;;;;;15.57;11.53;;;13.10;99.90;;;;;;5045646;28;20215;-71
2022/09/25 05:52:35;;;;;;;10.73;8.50;;;13.10;99.90;;;;;;5041512;28;20172;-71
2022/09/25 05:55:02;;;;;;;10.23;9.20;;;13.10;99.90;;;;;;5034552;28;20630;-72
2022/09/25 05:57:33;;;;;;;10.97;9.23;;;13.30;99.90;;;;;;5046913;28;20200;-72
2022/09/25 05:59:58;;;;;;;12.37;9.30;;;13.30;99.90;;;;;;5048578;28;20839;-72
2022/09/25 06:02:24;;;;;;;11.63;8.90;;;13.30;99.90;;;;;;5056208;28;20199;-72
2022/09/25 06:04:50;;;;;;;11.23;9.17;;;13.40;99.90;;;;;;5029670;28;20260;-72
2022/09/25 06:07:15;;;;;;;11.37;9.00;;;13.50;99.90;;;;;;5045765;28;20221;-71
2022/09/25 06:09:41;;;;;;;11.52;7.88;;;13.60;99.90;;;;;;5056071;28;20215;-72
2022/09/25 06:12:06;;;;;;;10.63;8.60;;;13.80;99.90;;;;;;5034050;28;20204;-72
2022/09/25 06:14:34;;;;;;;14.63;8.30;;;14.10;99.90;;;;;;5028451;28;20207;-71
2022/09/25 06:17:00;;;;;;;9.80;8.57;;;14.70;99.90;;;;;;5048856;28;20278;-72
2022/09/25 06:19:28;;;;;;;8.90;7.95;;;15.20;99.90;;;;;;5040547;28;20198;-71
2022/09/25 06:21:54;;;;;;;11.00;7.63;;;15.20;99.90;;;;;;5028996;28;20200;-71
2022/09/25 06:24:19;;;;;;;10.85;7.68;;;15.20;99.90;;;;;;5045245;28;20762;-70
2022/09/25 06:26:46;;;;;;;12.57;9.05;;;15.10;99.90;;;;;;5052888;28;20305;-71
2022/09/25 06:29:11;;;;;;;11.23;8.60;;;14.90;99.90;;;;;;5052237;28;20299;-70
2022/09/25 06:31:38;;;;;;;11.40;9.80;;;14.90;99.90;;;;;;5045560;28;20209;-72
2022/09/25 06:34:04;;;;;;;9.40;8.23;;;14.70;99.90;;;;;;5032411;28;20191;-71
2022/09/25 06:36:30;;;;;;;9.73;8.55;;;14.60;99.90;;;;;;5055087;28;20286;-71
2022/09/25 06:38:56;;;;;;;10.07;8.15;;;14.70;99.90;;;;;;5029586;28;20315;-71
2022/09/25 06:41:22;;;;;;;9.68;8.65;;;14.70;99.90;;;;;;5044952;28;20632;-71
2022/09/25 06:43:49;;;;;;;10.77;9.68;;;14.80;99.90;;;;;;5052295;28;20214;-71
2022/09/25 06:46:14;;;;;;;11.02;9.23;;;14.60;99.90;;;;;;5035800;28;20519;-72
2022/09/25 06:48:41;;;;;;;12.52;9.77;;;14.50;99.90;;;;;;5027387;28;20204;-72
2022/09/25 06:51:07;;;;;;;21.25;9.63;;;14.60;99.90;;;;;;5032606;28;20211;-72
2022/09/25 06:53:33;;;;;;;14.40;10.52;;;14.60;99.90;;;;;;5054666;28;20207;-71
2022/09/25 06:55:59;;;;;;;12.65;9.50;;;14.50;99.90;;;;;;5048261;28;20204;-71
2022/09/25 06:58:26;;;;;;;13.25;9.90;;;14.40;99.90;;;;;;5033394;28;20634;-72
2022/09/25 07:00:54;;;;;;;9.77;8.77;;;14.40;99.90;;;;;;5050867;28;20218;-72
2022/09/25 07:06:06;;;;;;;12.65;9.65;;;14.30;99.90;;;;;;5046310;28;20242;-72
2022/09/25 07:08:32;;;;;;;12.90;10.00;;;14.30;99.90;;;;;;5052402;28;20207;-71
2022/09/25 07:10:59;;;;;;;12.15;10.27;;;14.40;99.90;;;;;;5056035;28;20253;-72
2022/09/25 07:13:28;;;;;;;10.93;9.60;;;14.40;99.90;;;;;;5042007;28;20191;-72
2022/09/25 07:15:56;;;;;;;14.57;10.88;;;14.40;99.90;;;;;;5043590;28;20205;-70
2022/09/25 07:18:23;;;;;;;12.15;10.13;;;14.40;99.90;;;;;;5040575;28;20233;-71
2022/09/25 07:20:50;;;;;;;13.32;9.85;;;14.50;99.90;;;;;;5047506;28;20211;-71
2022/09/25 07:23:17;;;;;;;15.90;10.82;;;14.40;99.90;;;;;;5045713;28;20194;-71
2022/09/25 07:25:44;;;;;;;11.25;9.48;;;14.40;99.90;;;;;;5045208;28;20176;-70
2022/09/25 07:28:12;;;;;;;13.23;10.30;;;14.50;99.90;;;;;;5053576;28;20171;-71
2022/09/25 07:30:37;;;;;;;12.15;9.93;;;14.60;99.90;;;;;;5028612;28;20268;-71
2022/09/25 07:33:03;;;;;;;13.63;10.68;;;14.90;99.90;;;;;;5024753;28;20717;-72
2022/09/25 07:35:29;;;;;;;12.48;10.20;;;15.00;99.90;;;;;;5039534;28;20653;-71
2022/09/25 07:37:56;;;;;;;14.55;11.10;;;15.20;99.90;;;;;;5047659;28;20216;-71
2022/09/25 07:40:21;;;;;;;12.55;9.93;;;15.40;99.90;;;;;;5045853;28;20234;-72
2022/09/25 07:42:47;;;;;;;11.95;9.80;;;15.60;99.90;;;;;;5048338;28;20200;-70
2022/09/25 07:45:13;;;;;;;11.63;9.02;;;15.80;99.90;;;;;;5035444;28;20199;-73
2022/09/25 07:47:38;;;;;;;11.45;9.60;;;15.90;99.90;;;;;;5046146;28;20203;-72
2022/09/25 07:50:04;;;;;;;11.93;9.32;;;15.80;99.90;;;;;;5031650;28;20610;-70
2022/09/25 07:52:30;;;;;;;12.55;10.25;;;15.80;99.90;;;;;;5056039;28;20173;-71
2022/09/25 07:54:56;;;;;;;10.75;9.23;;;15.60;99.90;;;;;;5049365;28;20179;-72
2022/09/25 07:57:22;;;;;;;11.45;9.45;;;15.70;99.90;;;;;;5049601;28;20533;-71
2022/09/25 07:59:47;;;;;;;13.65;10.43;;;15.70;99.90;;;;;;5011384;28;1082341;-72
2022/09/25 08:02:13;;;;;;;12.70;9.43;;;15.80;99.90;;;;;;5058144;28;20264;-71
2022/09/25 08:04:38;;;;;;;12.40;10.48;;;15.90;99.90;;;;;;5051015;28;20180;-71
2022/09/25 08:07:04;;;;;;;13.02;10.68;;;16.30;99.90;;;;;;5048092;28;20639;-72
2022/09/25 08:09:30;;;;;;;11.45;9.60;;;16.50;99.90;;;;;;5044012;28;20202;-70
2022/09/25 08:11:55;;;;;;;13.90;9.63;;;16.60;99.90;;;;;;5036681;28;20222;-72
2022/09/25 08:14:21;;;;;;;12.65;10.48;;;16.90;99.90;;;;;;5038487;28;20745;-72
2022/09/25 08:16:48;;;;;;;13.80;10.35;;;17.00;99.90;;;;;;5049924;28;20621;-72
2022/09/25 08:19:16;;;;;;;12.63;9.88;;;17.00;99.90;;;;;;5058763;28;20191;-72
2022/09/25 08:21:42;;;;;;;12.68;11.18;;;17.60;99.90;;;;;;5051002;28;20227;-72
2022/09/25 08:24:09;;;;;;;11.85;10.07;;;18.00;99.90;;;;;;5046411;28;20200;-72
2022/09/25 08:26:35;;;;;;;12.30;9.57;;;18.10;99.90;;;;;;5055242;28;20209;-71
2022/09/25 08:29:02;;;;;;;12.23;10.18;;;18.00;99.90;;;;;;5054157;28;20247;-72
2022/09/25 08:31:28;;;;;;;12.52;10.43;;;18.00;99.90;;;;;;5049851;28;20168;-72
2022/09/25 08:33:53;;;;;;;11.75;10.55;;;17.80;99.90;;;;;;5049781;28;20227;-71
2022/09/25 08:36:20;;;;;;;12.05;10.68;;;17.20;99.90;;;;;;5059035;28;20207;-72
2022/09/25 08:38:46;;;;;;;12.00;10.70;;;17.20;99.90;;;;;;5050457;28;20215;-72
2022/09/25 08:41:29;;;;;;;12.52;10.63;;;17.20;99.90;;;;;;5046972;28;20212;-71
2022/09/25 08:44:05;;;;;;;12.82;9.80;;;16.90;99.90;;;;;;5055347;28;20276;-71
2022/09/25 08:49:35;;;;;;;12.13;10.00;;;16.70;99.90;;;;;;5046652;28;20187;-72
2022/09/25 08:52:07;;;;;;;21.65;16.00;;;16.60;99.90;;;;;;5040673;28;20261;-71
2022/09/25 08:54:34;;;;;;;13.68;11.50;;;16.60;99.90;;;;;;5055122;28;20294;-71
2022/09/25 08:57:36;;;;;;;20.27;15.35;;;16.70;99.90;;;;;;5047646;28;20720;-70
2022/09/25 09:00:19;;;;;;;13.35;10.43;;;16.90;99.90;;;;;;5047879;28;20211;-72
2022/09/25 09:02:56;;;;;;;13.00;10.57;;;16.90;99.90;;;;;;5051796;28;20199;-72
2022/09/25 09:05:26;;;;;;;13.13;10.15;;;16.90;99.90;;;;;;5047813;28;20762;-71
2022/09/25 09:08:09;;;;;;;10.90;9.80;;;17.20;99.90;;;;;;5049111;28;20741;-71
2022/09/25 09:10:49;;;;;;;11.88;10.02;;;17.60;99.90;;;;;;5054767;28;20257;-73
2022/09/25 09:13:36;;;;;;;12.15;9.95;;;18.00;99.90;;;;;;5052228;28;20186;-72
2022/09/25 09:16:07;;;;;;;12.38;10.32;;;18.00;99.90;;;;;;5027797;28;20299;-73
2022/09/25 09:18:38;;;;;;;12.77;10.57;;;17.80;99.90;;;;;;5042330;28;20198;-72
2022/09/25 09:21:03;;;;;;;11.68;10.45;;;17.80;99.90;;;;;;5051940;28;20239;-72
2022/09/25 09:23:39;;;;;;;15.68;11.32;;;17.70;99.90;;;;;;5029243;28;20318;-72
2022/09/25 09:26:13;;;;;;;14.50;10.82;;;17.70;99.90;;;;;;5033276;28;20218;-72
2022/09/25 09:28:50;;;;;;;13.15;10.93;;;18.00;99.90;;;;;;5053789;28;20538;-72
2022/09/25 09:31:24;;;;;;;11.18;9.60;;;18.00;99.90;;;;;;5050161;28;20170;-72
2022/09/25 09:33:49;;;;;;;13.65;10.05;;;18.20;99.90;;;;;;5048378;28;20293;-72
2022/09/25 09:36:54;;;;;;;12.50;10.10;;;18.20;99.90;;;;;;5057914;28;20229;-72
2022/09/25 09:39:34;;;;;;;11.43;9.95;;;18.20;99.90;;;;;;4993858;28;20295;-72
2022/09/25 09:42:26;;;;;;;11.70;10.25;;;18.10;99.90;;;;;;5043928;28;20200;-72
2022/09/25 09:45:02;;;;;;;11.23;9.57;;;18.20;99.90;;;;;;5029186;28;20277;-72
2022/09/25 09:47:38;;;;;;;13.38;10.95;;;18.20;99.90;;;;;;5051539;28;20669;-71
2022/09/25 09:50:19;;;;;;;11.43;10.32;;;18.40;99.90;;;;;;5043458;28;20208;-72
2022/09/25 09:52:48;;;;;;;12.70;10.90;;;18.50;99.90;;;;;;5045993;28;20221;-73
2022/09/25 09:55:33;;;;;;;12.90;10.30;;;18.60;99.90;;;;;;5053454;28;20721;-72
2022/09/25 09:58:06;;;;;;;10.73;9.63;;;18.70;99.90;;;;;;5044820;28;20262;-73
2022/09/25 10:00:33;;;;;;;11.68;10.27;;;18.60;99.90;;;;;;5053173;28;20239;-72
2022/09/25 10:03:03;;;;;;;13.63;10.45;;;18.30;99.90;;;;;;5034688;28;20540;-72
2022/09/25 10:05:43;;;;;;;13.23;10.40;;;18.30;99.90;;;;;;5047491;23;20294;-71
2022/09/25 10:08:09;;;;;;;10.88;9.05;;;18.40;99.90;;;;;;5010092;28;20205;-70
2022/09/25 10:10:41;;;;;;;13.48;9.38;;;18.60;99.90;;;;;;5014121;28;20586;-70
2022/09/25 10:13:19;;;;;;;10.02;9.05;;;18.80;99.90;;;;;;5011226;28;20202;-70
2022/09/25 10:15:58;;;;;;;10.88;9.43;;;19.20;99.90;;;;;;5005459;28;20209;-70
2022/09/25 10:18:30;;;;;;;11.07;9.80;;;19.40;99.90;;;;;;5013274;28;20254;-70
2022/09/25 10:21:09;;;;;;;11.05;9.65;;;19.20;99.90;;;;;;5010856;28;20202;-70
2022/09/25 10:23:45;;;;;;;10.13;9.13;;;19.50;99.90;;;;;;5005971;28;20209;-72
2022/09/25 10:26:35;;;;;;;12.48;9.25;;;19.50;99.90;;;;;;5011223;28;20209;-70
2022/09/25 10:29:21;;;;;;;10.00;8.70;;;19.70;99.90;;;;;;5013101;28;20205;-70
2022/09/25 10:31:55;;;;;;;10.15;8.43;;;19.90;99.90;;;;;;5006295;28;20196;-70
2022/09/25 10:34:22;;;;;;;11.13;8.50;;;19.90;99.90;;;;;;5011374;28;20200;-70
2022/09/25 10:36:51;;;;;;;9.98;8.95;;;20.00;99.90;;;;;;5006814;28;20209;-70
2022/09/25 10:39:32;;;;;;;10.52;7.70;;;19.90;99.90;;;;;;5012982;28;20670;-70
2022/09/25 10:41:59;;;;;;;11.48;9.75;;;20.00;99.90;;;;;;5003745;28;20205;-70
2022/09/25 10:44:32;;;;;;;10.88;9.13;;;20.20;99.90;;;;;;5018344;28;20246;-70
2022/09/25 10:50:14;;;;;;;8.30;7.50;;;20.10;99.90;;;;;;5000213;28;20224;-70
2022/09/25 10:52:49;;;;;;;7.72;6.80;;;20.10;99.90;;;;;;5012950;28;20624;-70
2022/09/25 10:55:21;;;;;;;7.93;7.13;;;20.10;99.90;;;;;;5028708;28;20265;-70
2022/09/25 10:57:47;;;;;;;8.00;7.20;;;20.10;99.90;;;;;;5003393;28;20692;-69
2022/09/25 11:00:22;;;;;;;7.43;6.72;;;20.20;99.90;;;;;;5012781;28;20216;-70
2022/09/25 11:02:53;;;;;;;7.35;6.60;;;20.10;99.90;;;;;;5016438;28;20201;-70
2022/09/25 11:05:23;;;;;;;8.98;6.75;;;20.20;99.90;;;;;;5006248;28;20204;-70
2022/09/25 11:07:53;;;;;;;7.47;6.78;;;20.10;99.90;;;;;;5001097;28;20201;-69
2022/09/25 11:10:35;;;;;;;8.05;7.25;;;19.90;99.90;;;;;;5012690;28;20172;-70
2022/09/25 11:13:07;;;;;;;8.10;7.30;;;20.00;99.90;;;;;;5010174;28;20237;-70
2022/09/25 11:15:38;;;;;;;9.10;7.18;;;19.80;99.90;;;;;;5004273;28;20283;-71
2022/09/25 11:18:05;;;;;;;9.52;7.88;;;19.80;99.90;;;;;;5016362;28;20623;-70
2022/09/25 11:20:31;;;;;;;8.63;7.18;;;19.90;99.90;;;;;;5018809;28;20204;-70
2022/09/25 11:23:28;;;;;;;8.15;6.28;;;20.00;99.90;;;;;;5005723;28;20209;-71
2022/09/25 11:26:14;;;;;;;8.32;6.32;;;19.70;99.90;;;;;;5007097;28;20201;-69
2022/09/25 11:29:14;;;;;;;9.50;6.85;;;19.70;99.90;;;;;;5012744;28;20208;-70
2022/09/25 11:31:50;;;;;;;8.68;7.72;;;19.60;99.90;;;;;;5012384;28;20177;-71
2022/09/25 11:34:57;;;;;;;8.65;7.32;;;19.50;99.90;;;;;;5014122;28;20219;-70
2022/09/25 11:37:33;;;;;;;7.68;6.88;;;19.40;99.90;;;;;;5012037;28;20204;-69
2022/09/25 11:43:25;;;;;;;10.32;8.25;;;19.30;99.90;;;;;;4989965;28;20211;-70
2022/09/25 11:46:01;;;;;;;7.68;6.55;;;19.20;99.90;;;;;;5011272;28;20346;-69
2022/09/25 11:48:59;;;;;;;7.97;6.65;;;19.20;99.90;;;;;;5007338;28;20197;-70
2022/09/25 11:51:38;;;;;;;10.30;9.25;;;19.30;99.90;;;;;;5006737;28;20200;-70
2022/09/25 11:54:31;;;;;;;13.40;9.43;;;19.40;99.90;;;;;;5013955;28;20213;-69
2022/09/25 11:57:11;;;;;;;13.77;10.80;;;19.50;99.90;;;;;;5007885;28;20202;-70
2022/09/25 12:00:03;;;;;;;7.15;6.43;;;19.70;99.90;;;;;;5008539;28;20203;-69
2022/09/25 12:02:46;;;;;;;6.82;6.07;;;19.60;99.90;;;;;;5007708;28;20194;-70
2022/09/25 12:05:31;;;;;;;8.30;6.53;;;19.60;99.90;;;;;;5025263;28;20243;-70
2022/09/25 12:08:30;;;;;;;7.00;6.28;;;19.70;99.90;;;;;;5005077;28;20213;-70
2022/09/25 12:11:44;;;;;;;6.38;5.72;;;19.60;99.90;;;;;;5013780;28;20205;-70
2022/09/25 12:14:28;;;;;;;6.38;5.78;;;19.50;99.90;;;;;;5007407;28;20217;-70
2022/09/25 12:17:22;;;;;;;7.50;6.25;;;19.70;99.90;;;;;;5006272;28;20219;-69
2022/09/25 12:20:21;;;;;;;7.18;6.30;;;19.70;99.90;;;;;;5010072;28;20232;-70
2022/09/25 12:23:01;;;;;;;6.40;5.75;;;19.90;99.90;;;;;;5005828;28;20165;-70
2022/09/25 12:25:54;;;;;;;6.53;5.78;;;19.90;99.90;;;;;;5007563;28;20187;-70
2022/09/25 12:28:35;;;;;;;8.93;6.20;;;19.70;99.90;;;;;;5007542;28;20200;-70
2022/09/25 12:31:39;;;;;;;6.22;5.47;;;19.60;99.90;;;;;;5007519;28;20327;-72
2022/09/25 12:34:17;;;;;;;6.43;5.28;;;19.60;99.90;;;;;;5003740;28;20221;-70
2022/09/25 12:36:51;;;;;;;9.02;5.20;;;19.50;99.90;;;;;;5009698;28;20587;-70
2022/09/25 12:39:36;;;;;;;5.13;4.60;;;19.50;99.90;;;;;;5009648;28;20197;-70
2022/09/25 12:42:22;;;;;;;5.28;4.78;;;19.50;99.90;;;;;;5005533;28;20231;-69
2022/09/25 12:45:25;;;;;;;7.72;5.75;;;19.50;99.90;;;;;;5014482;28;20355;-69
2022/09/25 12:47:59;;;;;;;5.85;4.95;;;19.50;99.90;;;;;;5010380;28;20200;-70
2022/09/25 12:50:30;;;;;;;5.25;4.65;;;19.60;99.90;;;;;;5006123;28;20196;-70
2022/09/25 12:53:02;;;;;;;5.90;4.97;;;19.40;99.90;;;;;;5016112;28;20205;-70
2022/09/25 12:55:31;;;;;;;7.47;5.60;;;19.20;99.90;;;;;;5014597;28;20193;-70
2022/09/25 12:58:33;;;;;;;6.50;5.72;;;19.10;99.90;;;;;;5005856;28;20177;-71
2022/09/25 13:01:10;;;;;;;6.53;5.93;;;19.10;99.90;;;;;;5018042;28;20274;-69
2022/09/25 13:03:48;;;;;;;7.20;6.47;;;19.10;99.90;;;;;;5014626;28;20303;-71
2022/09/25 13:06:48;;;;;;;6.75;5.53;;;19.10;99.90;;;;;;5008534;28;20208;-69
2022/09/25 13:09:40;;;;;;;6.32;5.40;;;19.20;99.90;;;;;;5014844;28;21032;-72
2022/09/25 13:12:23;;;;;;;7.30;5.45;;;19.30;99.90;;;;;;5015866;28;20292;-69
2022/09/25 13:14:55;;;;;;;6.47;5.78;;;19.20;99.90;;;;;;5001057;28;20322;-69
2022/09/25 13:17:21;;;;;;;7.90;5.95;;;19.30;99.90;;;;;;5014925;28;20670;-71
2022/09/25 13:19:47;;;;;;;7.63;5.53;;;19.30;99.90;;;;;;5008220;28;20180;-69
2022/09/25 13:22:23;;;;;;;6.60;5.93;;;19.30;99.90;;;;;;5012770;28;20176;-69
2022/09/25 13:24:56;;;;;;;6.20;5.63;;;19.30;99.90;;;;;;5003742;28;20217;-71
2022/09/25 13:27:24;;;;;;;6.35;5.75;;;19.30;99.90;;;;;;5014443;28;20246;-70